This is the latest recevied weather packets stored in our database for station/object K8ZAS. If no packets are shown the sender has not sent any weather packets the latest 10 day(s).
| Time | Temp. | Humidity | Pressure | Rain* | Wind** | Luminosity | Snow |
|---|---|---|---|---|---|---|---|
| 1777470019 | 0° C | 78% | 1020 hPa | 0 mm | - | 106 W/m² | - |
| 1777455044 | 0° C | 77% | 1018.9 hPa | 0 mm | - | 0 W/m² | - |
| 1777453824 | 0° C | 76% | 1018.6 hPa | 0 mm | - | 0 W/m² | - |
| 1777449026 | 2.22° C | 67% | 1019 hPa | 0 mm | - | 0 W/m² | - |
| 1777447226 | 4.44° C | 60% | 1018.9 hPa | 0 mm | - | 0 W/m² | - |
| 1777446667 | 4.44° C | 58% | 1018.9 hPa | 0 mm | - | 0 W/m² | - |
| 1777444217 | 4.44° C | 61% | 1018.8 hPa | 0 mm | - | 0 W/m² | - |
| 1777443618 | 5° C | 59% | 1018.8 hPa | 0 mm | - | 0 W/m² | - |
| 1777443017 | 5° C | 59% | 1018.7 hPa | 0 mm | - | 0 W/m² | - |
| 1777441218 | 5° C | 59% | 1018.6 hPa | 0 mm | - | 0 W/m² | - |
| 1777439459 | 5.56° C | 57% | 1018.6 hPa | 0 mm | - | 0 W/m² | - |
| 1777436420 | 6.67° C | 51% | 1018.3 hPa | 0 mm | - | 0 W/m² | - |
| 1777435217 | 6.67° C | 53% | 1018.2 hPa | 0 mm | - | 0 W/m² | - |
| 1777434021 | 7.78° C | 45% | 1017.6 hPa | 0 mm | - | 0 W/m² | - |
| 1777425620 | 11.11° C | 33% | 1015.8 hPa | 0 mm | - | 62 W/m² | - |
| 1777424417 | 11.67° C | 33% | 1015.8 hPa | 0 mm | - | 72 W/m² | - |
| 1777414217 | 11.67° C | 34% | 1014.9 hPa | 0 mm | - | 261 W/m² | - |
| 1777411818 | 12.22° C | 28% | 1014.8 hPa | 0 mm | - | 302 W/m² | - |
| 1777411218 | 12.22° C | 28% | 1014.7 hPa | 0 mm | - | 230 W/m² | - |
| 1777404620 | 12.78° C | 27% | 1014.6 hPa | 0 mm | - | 1083 W/m² | - |
| 1777404040 | 11.67° C | 29% | 1014.8 hPa | 0 mm | - | 1114 W/m² | - |
| 1777399822 | 10° C | 40% | 1015.6 hPa | 0 mm | - | 936 W/m² | - |
| 1777395620 | 8.33° C | 57% | 1016.5 hPa | 0 mm | - | 871 W/m² | - |
| 1777395020 | 8.33° C | 60% | 1016.6 hPa | 0 mm | - | 688 W/m² | - |
| 1777390819 | 6.11° C | 71% | 1016.7 hPa | 0 mm | - | 235 W/m² | - |
* Rain latest hour (hover to see other rain measurements)
** Current wind speed in m/s (hover to see current wind gust speed)